This is the latest recevied weather packets stored in our database for station/object DL5DI-H. If no packets are shown the sender has not sent any weather packets the latest 1 day(s).
| Time | Temp. | Humidity | Pressure | Rain* | Wind** | Luminosity | Snow |
|---|---|---|---|---|---|---|---|
| 1778003400 | 15.56° C | 90% | 1007.2 hPa | 1.02 mm | 0.45 m/s, 201° | - | - |
| 1778002800 | 15.56° C | 90% | 1007.2 hPa | 0.76 mm | 0.45 m/s, 270° | - | - |
| 1778002200 | 15.56° C | 90% | 1007.2 hPa | 0.76 mm | 0.45 m/s, 220° | - | - |
| 1778001600 | 15.56° C | 89% | 1007.3 hPa | 0.51 mm | 0.45 m/s, 270° | - | - |
| 1778001000 | 15.56° C | 89% | 1007.2 hPa | 0.51 mm | 0.45 m/s, 270° | - | - |
| 1778000400 | 15.56° C | 89% | 1007.3 hPa | 0.51 mm | 0.89 m/s, 301° | - | - |
| 1777999804 | 15.56° C | 89% | 1007.3 hPa | 0.51 mm | 0.89 m/s, 300° | - | - |
| 1777999205 | 15.56° C | 89% | 1007.4 hPa | 0.76 mm | 0.89 m/s, 298° | - | - |
| 1777998604 | 15.56° C | 89% | 1007.4 hPa | 0.76 mm | 0.89 m/s, 302° | - | - |
| 1777998000 | 15.56° C | 90% | 1007.4 hPa | 1.02 mm | 0.45 m/s, 233° | - | - |
| 1777997404 | 15.56° C | 89% | 1007.5 hPa | 1.27 mm | 0.89 m/s, 270° | - | - |
| 1777996800 | 15.56° C | 89% | 1007.5 hPa | 4.06 mm | 0.89 m/s, 317° | - | - |
| 1777996201 | 15.56° C | 88% | 1007.6 hPa | 7.11 mm | 2.24 m/s, 309° | - | - |
| 1777995604 | 15.56° C | 89% | 1007.6 hPa | 6.86 mm | 1.79 m/s, 294° | - | - |
| 1777995005 | 16.11° C | 88% | 1007.6 hPa | 6.6 mm | 0.89 m/s, 255° | - | - |
| 1777994400 | 16.11° C | 87% | 1007.6 hPa | 6.35 mm | 0.89 m/s, 144° | - | - |
| 1777993804 | 16.67° C | 83% | 1007.8 hPa | 3.3 mm | 1.34 m/s, 175° | - | - |
| 1777993200 | 16.67° C | 83% | 1007.8 hPa | 3.3 mm | 1.34 m/s, 175° | - | - |
| 1777992604 | 17.22° C | 81% | 1007.6 hPa | 0.25 mm | 0.45 m/s, 39° | - | - |
| 1777992004 | 17.78° C | 79% | 1007.5 hPa | 0 mm | 0.89 m/s, 38° | - | - |
| 1777991401 | 17.78° C | 79% | 1007.5 hPa | 0 mm | 0.89 m/s, 38° | - | - |
| 1777990801 | 17.78° C | 77% | 1007.5 hPa | 0 mm | 0.89 m/s, 24° | - | - |
| 1777990201 | 17.78° C | 77% | 1007.6 hPa | 0 mm | 0.89 m/s, 27° | - | - |
| 1777989604 | 17.78° C | 77% | 1007.6 hPa | 0 mm | 0.89 m/s, 27° | - | - |
| 1777989001 | 17.78° C | 76% | 1007.7 hPa | 0 mm | 0.45 m/s, 19° | - | - |
* Rain latest hour (hover to see other rain measurements)
** Current wind speed in m/s (hover to see current wind gust speed)